sensor_id;sensor_type;location;lat;lon;timestamp;pressure;altitude;pressure_sealevel;temperature;humidity
10720;BME280;5411;58.386;15.560;2023-04-07T00:00:33;101603.00;;;-2.02;100.00
10720;BME280;5411;58.386;15.560;2023-04-07T00:03:02;101597.09;;;-2.06;100.00
10720;BME280;5411;58.386;15.560;2023-04-07T00:05:33;101587.72;;;-2.10;100.00
10720;BME280;5411;58.386;15.560;2023-04-07T00:08:01;101584.81;;;-2.20;100.00
10720;BME280;5411;58.386;15.560;2023-04-07T00:10:32;101586.75;;;-2.23;100.00
10720;BME280;5411;58.386;15.560;2023-04-07T00:13:02;101583.38;;;-2.25;100.00
10720;BME280;5411;58.386;15.560;2023-04-07T00:15:30;101575.81;;;-2.30;100.00
10720;BME280;5411;58.386;15.560;2023-04-07T00:17:58;101582.16;;;-2.34;100.00
10720;BME280;5411;58.386;15.560;2023-04-07T00:20:27;101577.16;;;-2.38;100.00
10720;BME280;5411;58.386;15.560;2023-04-07T00:22:55;101583.25;;;-2.38;100.00
10720;BME280;5411;58.386;15.560;2023-04-07T00:25:23;101582.41;;;-2.38;100.00
10720;BME280;5411;58.386;15.560;2023-04-07T00:27:53;101586.81;;;-2.39;100.00
10720;BME280;5411;58.386;15.560;2023-04-07T00:30:21;101585.16;;;-2.40;100.00
10720;BME280;5411;58.386;15.560;2023-04-07T00:32:49;101587.66;;;-2.38;100.00
10720;BME280;5411;58.386;15.560;2023-04-07T00:35:18;101590.38;;;-2.40;100.00
10720;BME280;5411;58.386;15.560;2023-04-07T00:37:46;101583.53;;;-2.42;100.00
10720;BME280;5411;58.386;15.560;2023-04-07T00:40:16;101591.31;;;-2.41;100.00
10720;BME280;5411;58.386;15.560;2023-04-07T00:42:45;101583.88;;;-2.48;100.00
10720;BME280;5411;58.386;15.560;2023-04-07T00:45:14;101582.28;;;-2.51;100.00
10720;BME280;5411;58.386;15.560;2023-04-07T00:47:43;101582.56;;;-2.56;100.00
10720;BME280;5411;58.386;15.560;2023-04-07T00:50:11;101585.34;;;-2.59;100.00
10720;BME280;5411;58.386;15.560;2023-04-07T00:52:40;101584.69;;;-2.62;100.00
10720;BME280;5411;58.386;15.560;2023-04-07T00:55:09;101579.44;;;-2.62;100.00
10720;BME280;5411;58.386;15.560;2023-04-07T00:57:37;101577.84;;;-2.65;100.00
10720;BME280;5411;58.386;15.560;2023-04-07T01:00:07;101583.34;;;-2.69;100.00
10720;BME280;5411;58.386;15.560;2023-04-07T01:02:42;101586.06;;;-2.71;100.00
10720;BME280;5411;58.386;15.560;2023-04-07T01:05:16;101588.00;;;-2.74;100.00
10720;BME280;5411;58.386;15.560;2023-04-07T01:07:51;101584.72;;;-2.78;100.00
10720;BME280;5411;58.386;15.560;2023-04-07T01:10:26;101579.00;;;-2.84;100.00
10720;BME280;5411;58.386;15.560;2023-04-07T01:13:09;101579.25;;;-2.89;100.00
10720;BME280;5411;58.386;15.560;2023-04-07T01:15:41;101586.16;;;-2.88;100.00
10720;BME280;5411;58.386;15.560;2023-04-07T01:18:16;101587.09;;;-2.89;100.00
10720;BME280;5411;58.386;15.560;2023-04-07T01:20:49;101585.41;;;-2.90;100.00
10720;BME280;5411;58.386;15.560;2023-04-07T01:23:24;101584.56;;;-2.91;100.00
10720;BME280;5411;58.386;15.560;2023-04-07T01:26:16;101575.69;;;-2.88;100.00
10720;BME280;5411;58.386;15.560;2023-04-07T01:29:06;101577.53;;;-2.90;100.00
10720;BME280;5411;58.386;15.560;2023-04-07T01:31:40;101576.91;;;-2.94;100.00
10720;BME280;5411;58.386;15.560;2023-04-07T01:34:09;101577.91;;;-2.96;100.00
10720;BME280;5411;58.386;15.560;2023-04-07T01:36:38;101572.84;;;-2.99;100.00
10720;BME280;5411;58.386;15.560;2023-04-07T01:39:08;101576.47;;;-3.02;100.00
10720;BME280;5411;58.386;15.560;2023-04-07T01:41:38;101570.66;;;-3.07;100.00
10720;BME280;5411;58.386;15.560;2023-04-07T01:44:08;101572.75;;;-3.13;100.00
10720;BME280;5411;58.386;15.560;2023-04-07T01:46:37;101567.53;;;-3.13;100.00
10720;BME280;5411;58.386;15.560;2023-04-07T01:49:07;101565.75;;;-3.13;100.00
10720;BME280;5411;58.386;15.560;2023-04-07T01:51:36;101568.63;;;-3.17;100.00
10720;BME280;5411;58.386;15.560;2023-04-07T01:54:06;101560.38;;;-3.26;100.00
10720;BME280;5411;58.386;15.560;2023-04-07T01:56:35;101569.66;;;-3.20;100.00
10720;BME280;5411;58.386;15.560;2023-04-07T01:59:03;101570.59;;;-3.21;100.00
10720;BME280;5411;58.386;15.560;2023-04-07T02:01:32;101573.09;;;-3.19;100.00
10720;BME280;5411;58.386;15.560;2023-04-07T02:04:05;101576.56;;;-3.19;100.00
10720;BME280;5411;58.386;15.560;2023-04-07T02:06:41;101584.41;;;-3.19;100.00
10720;BME280;5411;58.386;15.560;2023-04-07T02:09:12;101575.97;;;-3.24;100.00
10720;BME280;5411;58.386;15.560;2023-04-07T02:11:43;101581.28;;;-3.26;100.00
10720;BME280;5411;58.386;15.560;2023-04-07T02:14:13;101583.16;;;-3.28;100.00
10720;BME280;5411;58.386;15.560;2023-04-07T02:16:50;101590.22;;;-3.30;100.00
10720;BME280;5411;58.386;15.560;2023-04-07T02:19:20;101589.47;;;-3.32;100.00
10720;BME280;5411;58.386;15.560;2023-04-07T02:21:50;101585.16;;;-3.33;100.00
10720;BME280;5411;58.386;15.560;2023-04-07T02:24:19;101582.53;;;-3.33;100.00
10720;BME280;5411;58.386;15.560;2023-04-07T02:26:49;101583.38;;;-3.32;100.00
10720;BME280;5411;58.386;15.560;2023-04-07T02:29:17;101585.16;;;-3.33;100.00
10720;BME280;5411;58.386;15.560;2023-04-07T02:31:45;101584.41;;;-3.35;100.00
10720;BME280;5411;58.386;15.560;2023-04-07T02:34:14;101585.44;;;-3.37;100.00
10720;BME280;5411;58.386;15.560;2023-04-07T02:36:42;101590.75;;;-3.39;100.00
10720;BME280;5411;58.386;15.560;2023-04-07T02:39:11;101585.50;;;-3.39;100.00
10720;BME280;5411;58.386;15.560;2023-04-07T02:41:40;101588.19;;;-3.40;100.00
10720;BME280;5411;58.386;15.560;2023-04-07T02:44:08;101594.28;;;-3.40;100.00
10720;BME280;5411;58.386;15.560;2023-04-07T02:46:36;101594.34;;;-3.41;100.00
10720;BME280;5411;58.386;15.560;2023-04-07T02:49:04;101589.03;;;-3.40;100.00
10720;BME280;5411;58.386;15.560;2023-04-07T02:51:32;101582.88;;;-3.39;100.00
10720;BME280;5411;58.386;15.560;2023-04-07T02:54:02;101582.97;;;-3.40;100.00
10720;BME280;5411;58.386;15.560;2023-04-07T02:56:32;101580.34;;;-3.40;100.00
10720;BME280;5411;58.386;15.560;2023-04-07T02:59:01;101582.97;;;-3.40;100.00
10720;BME280;5411;58.386;15.560;2023-04-07T03:01:29;101582.97;;;-3.40;100.00
10720;BME280;5411;58.386;15.560;2023-04-07T03:03:59;101581.19;;;-3.40;100.00
10720;BME280;5411;58.386;15.560;2023-04-07T03:06:27;101578.59;;;-3.40;100.00
10720;BME280;5411;58.386;15.560;2023-04-07T03:08:57;101587.34;;;-3.41;100.00
10720;BME280;5411;58.386;15.560;2023-04-07T03:11:26;101587.44;;;-3.42;100.00
10720;BME280;5411;58.386;15.560;2023-04-07T03:13:56;101599.81;;;-3.46;100.00
10720;BME280;5411;58.386;15.560;2023-04-07T03:16:25;101594.78;;;-3.49;100.00
10720;BME280;5411;58.386;15.560;2023-04-07T03:18:53;101600.31;;;-3.55;100.00
10720;BME280;5411;58.386;15.560;2023-04-07T03:21:22;101597.97;;;-3.60;100.00
10720;BME280;5411;58.386;15.560;2023-04-07T03:23:50;101599.91;;;-3.63;100.00
10720;BME280;5411;58.386;15.560;2023-04-07T03:26:19;101603.38;;;-3.63;100.00
10720;BME280;5411;58.386;15.560;2023-04-07T03:28:47;101605.13;;;-3.63;100.00
10720;BME280;5411;58.386;15.560;2023-04-07T03:31:17;101604.53;;;-3.68;100.00
10720;BME280;5411;58.386;15.560;2023-04-07T03:33:46;101597.88;;;-3.74;100.00
10720;BME280;5411;58.386;15.560;2023-04-07T03:36:14;101604.94;;;-3.76;100.00
10720;BME280;5411;58.386;15.560;2023-04-07T03:38:43;101608.63;;;-3.80;100.00
10720;BME280;5411;58.386;15.560;2023-04-07T03:41:11;101606.09;;;-3.81;100.00
10720;BME280;5411;58.386;15.560;2023-04-07T03:43:39;101609.88;;;-3.87;100.00
10720;BME280;5411;58.386;15.560;2023-04-07T03:46:08;101617.81;;;-3.88;100.00
10720;BME280;5411;58.386;15.560;2023-04-07T03:48:38;101609.97;;;-3.88;100.00
10720;BME280;5411;58.386;15.560;2023-04-07T03:51:06;101613.41;;;-3.88;100.00
10720;BME280;5411;58.386;15.560;2023-04-07T03:53:34;101605.56;;;-3.88;100.00
10720;BME280;5411;58.386;15.560;2023-04-07T03:56:03;101607.34;;;-3.88;100.00
10720;BME280;5411;58.386;15.560;2023-04-07T03:58:31;101610.03;;;-3.90;100.00
10720;BME280;5411;58.386;15.560;2023-04-07T04:01:00;101612.56;;;-3.88;100.00
10720;BME280;5411;58.386;15.560;2023-04-07T04:03:28;101609.13;;;-3.89;100.00
10720;BME280;5411;58.386;15.560;2023-04-07T04:05:57;101608.28;;;-3.89;100.00
10720;BME280;5411;58.386;15.560;2023-04-07T04:08:27;101614.41;;;-3.90;100.00
10720;BME280;5411;58.386;15.560;2023-04-07T04:10:56;101616.19;;;-3.91;100.00
10720;BME280;5411;58.386;15.560;2023-04-07T04:13:24;101616.19;;;-3.91;100.00
10720;BME280;5411;58.386;15.560;2023-04-07T04:15:53;101616.03;;;-3.88;100.00
10720;BME280;5411;58.386;15.560;2023-04-07T04:18:21;101624.53;;;-3.84;100.00
10720;BME280;5411;58.386;15.560;2023-04-07T04:20:50;101630.53;;;-3.82;100.00
10720;BME280;5411;58.386;15.560;2023-04-07T04:23:19;101628.53;;;-3.77;100.00
10720;BME280;5411;58.386;15.560;2023-04-07T04:25:48;101633.44;;;-3.71;100.00
10720;BME280;5411;58.386;15.560;2023-04-07T04:28:16;101629.66;;;-3.66;100.00
10720;BME280;5411;58.386;15.560;2023-04-07T04:30:44;101634.41;;;-3.56;100.00
10720;BME280;5411;58.386;15.560;2023-04-07T04:33:12;101634.00;;;-3.49;100.00
10720;BME280;5411;58.386;15.560;2023-04-07T04:35:40;101638.75;;;-3.40;100.00
10720;BME280;5411;58.386;15.560;2023-04-07T04:38:09;101634.69;;;-3.30;100.00
10720;BME280;5411;58.386;15.560;2023-04-07T04:40:39;101638.50;;;-3.19;100.00
10720;BME280;5411;58.386;15.560;2023-04-07T04:43:07;101640.56;;;-3.09;100.00
10720;BME280;5411;58.386;15.560;2023-04-07T04:45:36;101647.75;;;-2.97;100.00
10720;BME280;5411;58.386;15.560;2023-04-07T04:48:05;101650.59;;;-2.85;100.00
10720;BME280;5411;58.386;15.560;2023-04-07T04:50:33;101653.47;;;-2.74;100.00
10720;BME280;5411;58.386;15.560;2023-04-07T04:53:05;101649.22;;;-2.61;100.00
10720;BME280;5411;58.386;15.560;2023-04-07T04:55:33;101659.00;;;-2.49;100.00
10720;BME280;5411;58.386;15.560;2023-04-07T04:58:02;101650.53;;;-2.38;100.00
10720;BME280;5411;58.386;15.560;2023-04-07T05:00:31;101655.34;;;-2.31;100.00
10720;BME280;5411;58.386;15.560;2023-04-07T05:02:59;101652.34;;;-2.25;100.00
10720;BME280;5411;58.386;15.560;2023-04-07T05:05:29;101652.84;;;-2.18;100.00
10720;BME280;5411;58.386;15.560;2023-04-07T05:07:57;101657.56;;;-2.09;100.00
10720;BME280;5411;58.386;15.560;2023-04-07T05:10:29;101652.59;;;-1.99;100.00
10720;BME280;5411;58.386;15.560;2023-04-07T05:12:59;101658.00;;;-1.87;100.00
10720;BME280;5411;58.386;15.560;2023-04-07T05:15:29;101651.91;;;-1.73;100.00
10720;BME280;5411;58.386;15.560;2023-04-07T05:17:57;101661.56;;;-1.59;100.00
10720;BME280;5411;58.386;15.560;2023-04-07T05:20:26;101665.25;;;-1.48;100.00
10720;BME280;5411;58.386;15.560;2023-04-07T05:22:54;101662.16;;;-1.40;100.00
10720;BME280;5411;58.386;15.560;2023-04-07T05:25:23;101652.22;;;-1.35;100.00
10720;BME280;5411;58.386;15.560;2023-04-07T05:27:51;101662.41;;;-1.30;100.00
10720;BME280;5411;58.386;15.560;2023-04-07T05:30:20;101662.06;;;-1.24;100.00
10720;BME280;5411;58.386;15.560;2023-04-07T05:32:49;101659.03;;;-1.18;100.00
10720;BME280;5411;58.386;15.560;2023-04-07T05:35:17;101668.25;;;-1.11;100.00
10720;BME280;5411;58.386;15.560;2023-04-07T05:37:46;101663.25;;;-1.01;100.00
10720;BME280;5411;58.386;15.560;2023-04-07T05:40:14;101674.22;;;-0.95;100.00
10720;BME280;5411;58.386;15.560;2023-04-07T05:42:42;101674.66;;;-0.88;100.00
10720;BME280;5411;58.386;15.560;2023-04-07T05:45:11;101672.59;;;-0.83;100.00
10720;BME280;5411;58.386;15.560;2023-04-07T05:47:39;101677.75;;;-0.82;100.00
10720;BME280;5411;58.386;15.560;2023-04-07T05:50:09;101671.34;;;-0.78;100.00
10720;BME280;5411;58.386;15.560;2023-04-07T05:52:39;101668.25;;;-0.70;100.00
10720;BME280;5411;58.386;15.560;2023-04-07T05:55:08;101664.38;;;-0.64;100.00
10720;BME280;5411;58.386;15.560;2023-04-07T05:57:36;101669.34;;;-0.60;100.00
10720;BME280;5411;58.386;15.560;2023-04-07T06:00:06;101668.22;;;-0.56;100.00
10720;BME280;5411;58.386;15.560;2023-04-07T06:02:38;101666.00;;;-0.49;100.00
10720;BME280;5411;58.386;15.560;2023-04-07T06:05:08;101671.75;;;-0.43;100.00
10720;BME280;5411;58.386;15.560;2023-04-07T06:07:37;101667.09;;;-0.39;100.00
10720;BME280;5411;58.386;15.560;2023-04-07T06:10:09;101672.06;;;-0.34;100.00
10720;BME280;5411;58.386;15.560;2023-04-07T06:12:37;101675.16;;;-0.28;100.00
10720;BME280;5411;58.386;15.560;2023-04-07T06:15:07;101673.69;;;-0.19;100.00
10720;BME280;5411;58.386;15.560;2023-04-07T06:17:35;101675.59;;;-0.09;100.00
10720;BME280;5411;58.386;15.560;2023-04-07T06:20:04;101688.88;;;0.03;100.00
10720;BME280;5411;58.386;15.560;2023-04-07T06:22:35;101683.97;;;0.11;100.00
10720;BME280;5411;58.386;15.560;2023-04-07T06:25:13;101680.72;;;0.20;100.00
10720;BME280;5411;58.386;15.560;2023-04-07T06:27:42;101688.22;;;0.26;100.00
10720;BME280;5411;58.386;15.560;2023-04-07T06:30:11;101686.94;;;0.31;100.00
10720;BME280;5411;58.386;15.560;2023-04-07T06:32:42;101686.44;;;0.39;100.00
10720;BME280;5411;58.386;15.560;2023-04-07T06:35:11;101678.19;;;0.44;100.00
10720;BME280;5411;58.386;15.560;2023-04-07T06:37:41;101684.75;;;0.51;100.00
10720;BME280;5411;58.386;15.560;2023-04-07T06:40:12;101692.84;;;0.60;100.00
10720;BME280;5411;58.386;15.560;2023-04-07T06:42:40;101686.19;;;0.67;100.00
10720;BME280;5411;58.386;15.560;2023-04-07T06:45:09;101693.69;;;0.74;100.00
10720;BME280;5411;58.386;15.560;2023-04-07T06:47:37;101696.72;;;0.80;100.00
10720;BME280;5411;58.386;15.560;2023-04-07T06:50:07;101687.44;;;0.87;100.00
10720;BME280;5411;58.386;15.560;2023-04-07T06:52:36;101693.84;;;0.96;100.00
10720;BME280;5411;58.386;15.560;2023-04-07T06:55:07;101696.72;;;1.05;100.00
10720;BME280;5411;58.386;15.560;2023-04-07T06:57:36;101701.31;;;1.15;100.00
10720;BME280;5411;58.386;15.560;2023-04-07T07:00:05;101700.75;;;1.22;100.00
10720;BME280;5411;58.386;15.560;2023-04-07T07:02:35;101695.78;;;1.30;100.00
10720;BME280;5411;58.386;15.560;2023-04-07T07:05:04;101704.31;;;1.34;100.00
10720;BME280;5411;58.386;15.560;2023-04-07T07:07:32;101701.34;;;1.38;100.00
10720;BME280;5411;58.386;15.560;2023-04-07T07:10:01;101690.81;;;1.38;100.00
10720;BME280;5411;58.386;15.560;2023-04-07T07:12:56;101691.91;;;1.47;100.00
10720;BME280;5411;58.386;15.560;2023-04-07T07:15:24;101693.19;;;1.54;100.00
10720;BME280;5411;58.386;15.560;2023-04-07T07:17:53;101694.66;;;1.58;100.00
10720;BME280;5411;58.386;15.560;2023-04-07T07:20:21;101699.91;;;1.58;100.00
10720;BME280;5411;58.386;15.560;2023-04-07T07:22:51;101701.03;;;1.67;100.00
10720;BME280;5411;58.386;15.560;2023-04-07T07:25:20;101698.78;;;1.73;100.00
10720;BME280;5411;58.386;15.560;2023-04-07T07:27:48;101700.13;;;1.79;100.00
10720;BME280;5411;58.386;15.560;2023-04-07T07:30:23;101706.03;;;1.83;100.00
10720;BME280;5411;58.386;15.560;2023-04-07T07:32:52;101701.38;;;1.86;100.00
10720;BME280;5411;58.386;15.560;2023-04-07T07:35:21;101700.78;;;1.94;100.00
10720;BME280;5411;58.386;15.560;2023-04-07T07:37:51;101689.06;;;1.98;100.00
10720;BME280;5411;58.386;15.560;2023-04-07T07:40:20;101696.13;;;1.97;100.00
10720;BME280;5411;58.386;15.560;2023-04-07T07:42:49;101694.09;;;2.01;100.00
10720;BME280;5411;58.386;15.560;2023-04-07T07:45:17;101695.22;;;2.09;100.00
10720;BME280;5411;58.386;15.560;2023-04-07T07:47:48;101692.34;;;2.12;100.00
10720;BME280;5411;58.386;15.560;2023-04-07T07:50:16;101697.03;;;2.20;100.00
10720;BME280;5411;58.386;15.560;2023-04-07T07:52:45;101695.97;;;2.23;100.00
10720;BME280;5411;58.386;15.560;2023-04-07T07:55:13;101710.16;;;2.33;100.00
10720;BME280;5411;58.386;15.560;2023-04-07T07:57:41;101705.38;;;2.38;100.00
10720;BME280;5411;58.386;15.560;2023-04-07T08:00:10;101714.63;;;2.43;100.00
10720;BME280;5411;58.386;15.560;2023-04-07T08:02:41;101711.63;;;2.48;100.00
10720;BME280;5411;58.386;15.560;2023-04-07T08:05:11;101718.13;;;2.55;100.00
10720;BME280;5411;58.386;15.560;2023-04-07T08:07:39;101710.59;;;2.62;100.00
10720;BME280;5411;58.386;15.560;2023-04-07T08:10:09;101725.72;;;2.71;100.00
10720;BME280;5411;58.386;15.560;2023-04-07T08:12:39;101724.75;;;2.72;100.00
10720;BME280;5411;58.386;15.560;2023-04-07T08:15:08;101722.63;;;2.88;100.00
10720;BME280;5411;58.386;15.560;2023-04-07T08:17:37;101720.81;;;3.00;100.00
10720;BME280;5411;58.386;15.560;2023-04-07T08:20:06;101733.41;;;3.07;100.00
10720;BME280;5411;58.386;15.560;2023-04-07T08:22:37;101732.72;;;3.16;100.00
10720;BME280;5411;58.386;15.560;2023-04-07T08:25:08;101731.13;;;3.25;100.00
10720;BME280;5411;58.386;15.560;2023-04-07T08:27:37;101732.22;;;3.22;100.00
10720;BME280;5411;58.386;15.560;2023-04-07T08:30:06;101740.28;;;3.32;100.00
10720;BME280;5411;58.386;15.560;2023-04-07T08:32:36;101736.16;;;3.39;100.00
10720;BME280;5411;58.386;15.560;2023-04-07T08:35:05;101737.22;;;3.48;100.00
10720;BME280;5411;58.386;15.560;2023-04-07T08:37:33;101734.22;;;3.52;100.00
10720;BME280;5411;58.386;15.560;2023-04-07T08:40:05;101744.94;;;3.51;100.00
10720;BME280;5411;58.386;15.560;2023-04-07T08:42:34;101747.69;;;3.49;100.00
10720;BME280;5411;58.386;15.560;2023-04-07T08:45:07;101737.22;;;3.59;100.00
10720;BME280;5411;58.386;15.560;2023-04-07T08:47:36;101737.66;;;3.75;100.00
10720;BME280;5411;58.386;15.560;2023-04-07T08:50:06;101742.53;;;3.91;100.00
10720;BME280;5411;58.386;15.560;2023-04-07T08:52:43;101749.34;;;4.05;100.00
10720;BME280;5411;58.386;15.560;2023-04-07T08:55:13;101742.19;;;4.16;100.00
10720;BME280;5411;58.386;15.560;2023-04-07T08:57:42;101740.88;;;4.22;99.94
10720;BME280;5411;58.386;15.560;2023-04-07T09:00:11;101741.28;;;4.38;98.28
10720;BME280;5411;58.386;15.560;2023-04-07T09:02:41;101752.44;;;4.42;97.98
10720;BME280;5411;58.386;15.560;2023-04-07T09:05:12;101755.41;;;4.48;98.33
10720;BME280;5411;58.386;15.560;2023-04-07T09:07:41;101755.16;;;4.51;96.70
10720;BME280;5411;58.386;15.560;2023-04-07T09:10:10;101766.66;;;4.61;97.56
10720;BME280;5411;58.386;15.560;2023-04-07T09:12:40;101758.53;;;4.74;96.48
10720;BME280;5411;58.386;15.560;2023-04-07T09:15:16;101758.78;;;4.71;95.46
10720;BME280;5411;58.386;15.560;2023-04-07T09:18:06;101752.13;;;4.77;95.75
10720;BME280;5411;58.386;15.560;2023-04-07T09:20:56;101756.13;;;4.71;95.27
10720;BME280;5411;58.386;15.560;2023-04-07T09:23:28;101756.31;;;4.79;95.70
10720;BME280;5411;58.386;15.560;2023-04-07T09:25:58;101762.66;;;4.88;95.84
10720;BME280;5411;58.386;15.560;2023-04-07T09:28:48;101753.59;;;4.90;94.10
10720;BME280;5411;58.386;15.560;2023-04-07T09:31:21;101764.13;;;5.01;95.32
10720;BME280;5411;58.386;15.560;2023-04-07T09:34:22;101762.19;;;5.04;93.64
10720;BME280;5411;58.386;15.560;2023-04-07T09:36:51;101762.22;;;5.13;94.11
10720;BME280;5411;58.386;15.560;2023-04-07T09:39:19;101770.75;;;5.17;93.71
10720;BME280;5411;58.386;15.560;2023-04-07T09:41:47;101767.13;;;5.18;93.46
10720;BME280;5411;58.386;15.560;2023-04-07T09:44:17;101769.06;;;5.16;94.21
10720;BME280;5411;58.386;15.560;2023-04-07T09:46:50;101772.94;;;5.12;93.02
10720;BME280;5411;58.386;15.560;2023-04-07T09:49:18;101763.41;;;4.99;94.10
10720;BME280;5411;58.386;15.560;2023-04-07T09:51:54;101766.97;;;4.89;95.11
10720;BME280;5411;58.386;15.560;2023-04-07T09:54:34;101771.19;;;4.91;94.44
10720;BME280;5411;58.386;15.560;2023-04-07T09:57:06;101769.50;;;4.90;94.92
10720;BME280;5411;58.386;15.560;2023-04-07T09:59:37;101769.75;;;4.87;94.31
10720;BME280;5411;58.386;15.560;2023-04-07T10:02:06;101770.25;;;4.81;94.89
10720;BME280;5411;58.386;15.560;2023-04-07T10:04:35;101777.00;;;4.85;95.69
10720;BME280;5411;58.386;15.560;2023-04-07T10:07:05;101773.56;;;4.94;94.86
10720;BME280;5411;58.386;15.560;2023-04-07T10:09:33;101773.50;;;5.06;94.39
10720;BME280;5411;58.386;15.560;2023-04-07T10:12:02;101766.91;;;5.00;93.80
10720;BME280;5411;58.386;15.560;2023-04-07T10:14:31;101771.81;;;5.05;94.54
10720;BME280;5411;58.386;15.560;2023-04-07T10:17:02;101767.13;;;5.18;94.28
10720;BME280;5411;58.386;15.560;2023-04-07T10:19:31;101774.53;;;5.24;92.59
10720;BME280;5411;58.386;15.560;2023-04-07T10:22:02;101782.75;;;5.21;93.55
10720;BME280;5411;58.386;15.560;2023-04-07T10:24:41;101778.00;;;5.15;93.55
10720;BME280;5411;58.386;15.560;2023-04-07T10:27:16;101772.94;;;5.12;92.79
10720;BME280;5411;58.386;15.560;2023-04-07T10:29:48;101774.88;;;5.10;93.75
10720;BME280;5411;58.386;15.560;2023-04-07T10:32:20;101787.81;;;5.24;93.42
10720;BME280;5411;58.386;15.560;2023-04-07T10:34:58;101782.69;;;5.32;92.92
10720;BME280;5411;58.386;15.560;2023-04-07T10:37:27;101783.56;;;5.42;92.76
10720;BME280;5411;58.386;15.560;2023-04-07T10:40:26;101795.63;;;5.56;92.03
10720;BME280;5411;58.386;15.560;2023-04-07T10:42:55;101782.72;;;5.42;91.09
10720;BME280;5411;58.386;15.560;2023-04-07T10:45:53;101790.50;;;5.33;92.50
10720;BME280;5411;58.386;15.560;2023-04-07T10:48:28;101793.81;;;5.26;92.66
10720;BME280;5411;58.386;15.560;2023-04-07T10:51:15;101798.50;;;5.13;93.14
10720;BME280;5411;58.386;15.560;2023-04-07T10:54:16;101787.75;;;5.14;93.69
10720;BME280;5411;58.386;15.560;2023-04-07T10:57:09;101789.22;;;5.28;93.80
10720;BME280;5411;58.386;15.560;2023-04-07T11:02:34;101782.69;;;5.32;93.15
10720;BME280;5411;58.386;15.560;2023-04-07T11:05:05;101785.34;;;5.32;93.28
10720;BME280;5411;58.386;15.560;2023-04-07T11:07:56;101800.69;;;5.28;92.41
10720;BME280;5411;58.386;15.560;2023-04-07T11:10:33;101780.94;;;5.21;92.98
10720;BME280;5411;58.386;15.560;2023-04-07T11:13:04;101783.25;;;5.35;93.45
10720;BME280;5411;58.386;15.560;2023-04-07T11:15:35;101782.69;;;5.32;92.65
10720;BME280;5411;58.386;15.560;2023-04-07T11:18:14;101789.53;;;5.34;92.74
10720;BME280;5411;58.386;15.560;2023-04-07T11:20:49;101798.22;;;5.46;92.58
10720;BME280;5411;58.386;15.560;2023-04-07T11:23:19;101802.16;;;5.52;92.85
10720;BME280;5411;58.386;15.560;2023-04-07T11:25:58;101793.34;;;5.42;92.92
10720;BME280;5411;58.386;15.560;2023-04-07T11:28:28;101804.34;;;5.37;92.70
10720;BME280;5411;58.386;15.560;2023-04-07T11:30:57;101803.94;;;5.42;92.92
10720;BME280;5411;58.386;15.560;2023-04-07T11:33:27;101794.31;;;5.41;93.07
10720;BME280;5411;58.386;15.560;2023-04-07T11:36:01;101811.56;;;5.56;92.28
10720;BME280;5411;58.386;15.560;2023-04-07T11:38:36;101809.06;;;5.73;91.78
10720;BME280;5411;58.386;15.560;2023-04-07T11:41:10;101809.44;;;5.90;90.96
10720;BME280;5411;58.386;15.560;2023-04-07T11:43:38;101804.97;;;6.00;89.45
10720;BME280;5411;58.386;15.560;2023-04-07T11:46:11;101806.81;;;6.09;89.54
10720;BME280;5411;58.386;15.560;2023-04-07T11:48:40;101811.28;;;6.18;88.93
10720;BME280;5411;58.386;15.560;2023-04-07T11:51:20;101808.78;;;6.26;86.79
10720;BME280;5411;58.386;15.560;2023-04-07T11:53:54;101797.47;;;6.24;87.13
10720;BME280;5411;58.386;15.560;2023-04-07T11:56:23;101809.91;;;6.24;88.50
10720;BME280;5411;58.386;15.560;2023-04-07T11:58:53;101803.34;;;6.37;88.01
10720;BME280;5411;58.386;15.560;2023-04-07T12:01:22;101803.06;;;6.31;86.46
10720;BME280;5411;58.386;15.560;2023-04-07T12:03:56;101799.41;;;6.22;86.52
10720;BME280;5411;58.386;15.560;2023-04-07T12:06:30;101811.88;;;6.12;86.93
10720;BME280;5411;58.386;15.560;2023-04-07T12:09:01;101799.97;;;6.16;87.43
10720;BME280;5411;58.386;15.560;2023-04-07T12:11:30;101800.94;;;6.15;87.06
10720;BME280;5411;58.386;15.560;2023-04-07T12:14:01;101797.88;;;6.20;87.20
10720;BME280;5411;58.386;15.560;2023-04-07T12:16:36;101799.16;;;6.25;86.43
10720;BME280;5411;58.386;15.560;2023-04-07T12:19:05;101816.91;;;6.25;86.05
10720;BME280;5411;58.386;15.560;2023-04-07T12:21:37;101808.38;;;6.31;86.74
10720;BME280;5411;58.386;15.560;2023-04-07T12:24:06;101793.13;;;6.42;86.70
10720;BME280;5411;58.386;15.560;2023-04-07T12:26:34;101802.09;;;6.51;85.66
10720;BME280;5411;58.386;15.560;2023-04-07T12:29:02;101800.53;;;6.49;85.24
10720;BME280;5411;58.386;15.560;2023-04-07T12:31:31;101792.00;;;6.45;85.21
10720;BME280;5411;58.386;15.560;2023-04-07T12:34:00;101801.09;;;6.42;85.21
10720;BME280;5411;58.386;15.560;2023-04-07T12:36:28;101801.38;;;6.49;85.01
10720;BME280;5411;58.386;15.560;2023-04-07T12:38:58;101794.25;;;6.50;83.77
10720;BME280;5411;58.386;15.560;2023-04-07T12:41:26;101784.44;;;6.40;84.43
10720;BME280;5411;58.386;15.560;2023-04-07T12:43:55;101793.81;;;6.54;84.71
10720;BME280;5411;58.386;15.560;2023-04-07T12:46:23;101791.56;;;6.69;84.25
10720;BME280;5411;58.386;15.560;2023-04-07T12:48:52;101788.50;;;6.64;84.07
10720;BME280;5411;58.386;15.560;2023-04-07T12:51:21;101796.03;;;6.68;83.88
10720;BME280;5411;58.386;15.560;2023-04-07T12:53:50;101791.97;;;6.74;84.24
10720;BME280;5411;58.386;15.560;2023-04-07T12:56:21;101800.91;;;6.83;83.19
10720;BME280;5411;58.386;15.560;2023-04-07T12:58:52;101792.09;;;6.82;83.17
10720;BME280;5411;58.386;15.560;2023-04-07T13:01:29;101795.47;;;6.74;82.32
10720;BME280;5411;58.386;15.560;2023-04-07T13:03:59;101802.63;;;6.64;83.11
10720;BME280;5411;58.386;15.560;2023-04-07T13:06:28;101799.69;;;6.58;83.29
10720;BME280;5411;58.386;15.560;2023-04-07T13:08:57;101801.22;;;6.60;83.02